createdAt,value
2019-04-25T00:01:36.523Z,29.53
2019-04-25T00:04:09.216Z,25.30
2019-04-25T00:06:42.878Z,25.87
2019-04-25T00:09:17.082Z,30.77
2019-04-25T00:11:49.051Z,31.80
2019-04-25T00:14:22.513Z,30.80
2019-04-25T00:16:54.866Z,24.97
2019-04-25T00:19:26.910Z,32.33
2019-04-25T00:22:03.567Z,29.43
2019-04-25T00:24:49.484Z,29.37
2019-04-25T00:27:23.770Z,26.50
2019-04-25T00:29:56.598Z,26.73
2019-04-25T00:32:28.610Z,27.90
2019-04-25T00:35:01.905Z,26.80
2019-04-25T00:37:34.583Z,25.70
2019-04-25T00:40:08.818Z,29.97
2019-04-25T00:42:42.780Z,26.60
2019-04-25T00:45:14.551Z,28.93
2019-04-25T00:47:46.508Z,33.17
2019-04-25T00:50:18.472Z,30.87
2019-04-25T00:52:52.201Z,30.93
2019-04-25T00:55:28.533Z,28.63
2019-04-25T00:58:03.386Z,28.80
2019-04-25T01:00:54.272Z,26.93
2019-04-25T01:03:31.721Z,29.17
2019-04-25T01:06:03.959Z,29.37
2019-04-25T01:08:36.258Z,28.17
2019-04-25T01:11:08.203Z,30.37
2019-04-25T01:13:40.337Z,25.87
2019-04-25T01:16:12.289Z,35.30
2019-04-25T01:18:45.315Z,27.93
2019-04-25T01:21:17.827Z,29.80
2019-04-25T01:23:49.798Z,30.67
2019-04-25T01:26:21.805Z,36.97
2019-04-25T01:28:54.879Z,32.47
2019-04-25T01:31:29.125Z,25.87
2019-04-25T01:34:01.082Z,30.00
2019-04-25T01:36:50.747Z,29.70
2019-04-25T01:39:27.159Z,30.47
2019-04-25T01:42:17.024Z,30.10
2019-04-25T01:44:51.505Z,33.50
2019-04-25T01:47:24.026Z,26.87
2019-04-25T01:49:56.709Z,31.83
2019-04-25T01:52:29.311Z,28.30
2019-04-25T01:55:01.333Z,30.73
2019-04-25T01:57:33.767Z,32.07
2019-04-25T02:00:08.187Z,28.87
2019-04-25T02:02:40.444Z,31.90
2019-04-25T02:05:13.886Z,30.80
2019-04-25T02:07:46.207Z,28.40
2019-04-25T02:10:18.339Z,40.67
2019-04-25T02:12:55.610Z,29.03
2019-04-25T02:15:29.944Z,35.53
2019-04-25T02:18:03.685Z,32.13
2019-04-25T02:20:35.880Z,28.20
2019-04-25T02:23:07.838Z,31.93
2019-04-25T02:25:39.889Z,29.60
2019-04-25T02:28:15.516Z,28.03
2019-04-25T02:30:45.837Z,36.03
2019-04-25T02:33:18.144Z,32.33
2019-04-25T02:35:50.132Z,33.40
2019-04-25T02:38:24.100Z,32.43
2019-04-25T02:40:57.726Z,35.10
2019-04-25T02:43:29.503Z,28.30
2019-04-25T02:46:12.157Z,35.83
2019-04-25T02:49:04.137Z,28.60
2019-04-25T02:51:37.241Z,30.37
2019-04-25T02:54:09.232Z,35.87
2019-04-25T02:56:41.170Z,29.63
2019-04-25T02:59:14.912Z,32.73
2019-04-25T03:01:47.195Z,30.77
2019-04-25T03:04:19.148Z,30.73
2019-04-25T03:06:51.219Z,31.53
2019-04-25T03:09:24.995Z,27.67
2019-04-25T03:11:58.326Z,35.10
2019-04-25T03:14:30.520Z,33.23
2019-04-25T03:17:05.114Z,40.17
2019-04-25T03:19:43.817Z,32.83
2019-04-25T03:22:16.883Z,41.83
2019-04-25T03:24:49.412Z,32.33
2019-04-25T03:27:21.383Z,33.17
2019-04-25T03:29:54.167Z,35.43
2019-04-25T03:32:28.411Z,30.97
2019-04-25T03:35:01.221Z,31.23
2019-04-25T03:37:35.169Z,35.83
2019-04-25T03:40:08.364Z,32.23
2019-04-25T03:42:40.604Z,35.77
2019-04-25T03:45:14.040Z,41.10
2019-04-25T03:47:47.244Z,35.03
2019-04-25T03:50:19.211Z,36.67
2019-04-25T03:52:51.147Z,36.60
2019-04-25T03:55:24.074Z,34.07
2019-04-25T03:57:56.154Z,35.93
2019-04-25T04:00:28.135Z,34.67
2019-04-25T04:03:00.357Z,39.37
2019-04-25T04:05:32.307Z,32.70
2019-04-25T04:08:05.603Z,34.27
2019-04-25T04:10:38.306Z,34.23
2019-04-25T04:13:10.280Z,35.50
2019-04-25T04:15:43.358Z,31.30
2019-04-25T04:18:17.420Z,33.10
2019-04-25T04:20:56.625Z,33.07
2019-04-25T04:23:36.321Z,33.13
2019-04-25T04:26:09.500Z,31.27
2019-04-25T04:28:41.574Z,37.50
2019-04-25T04:31:14.332Z,32.40
2019-04-25T04:33:47.691Z,33.03
2019-04-25T04:36:19.658Z,32.10
2019-04-25T04:38:52.009Z,34.87
2019-04-25T04:41:24.051Z,28.70
2019-04-25T04:43:56.014Z,29.20
2019-04-25T04:46:27.988Z,26.07
2019-04-25T04:48:59.951Z,32.37
2019-04-25T04:51:33.569Z,32.80
2019-04-25T04:54:05.803Z,31.27
2019-04-25T04:56:37.768Z,31.00
2019-04-25T04:59:10.854Z,37.30
2019-04-25T05:01:56.676Z,27.50
2019-04-25T05:04:46.714Z,35.93
2019-04-25T05:07:36.880Z,27.80
2019-04-25T05:10:09.259Z,31.40
2019-04-25T05:12:41.230Z,29.93
2019-04-25T05:15:15.313Z,34.30
2019-04-25T05:17:47.695Z,29.37
2019-04-25T05:20:20.136Z,29.80
2019-04-25T05:22:54.591Z,24.07
2019-04-25T05:25:26.170Z,29.80
2019-04-25T05:28:02.934Z,23.67
2019-04-25T05:30:33.975Z,26.57
2019-04-25T05:33:05.945Z,28.97
2019-04-25T05:35:37.920Z,25.23
2019-04-25T05:38:09.861Z,25.27
2019-04-25T05:40:49.218Z,18.83
2019-04-25T05:43:21.434Z,18.27
2019-04-25T05:45:54.137Z,21.93
2019-04-25T05:48:26.402Z,17.47
2019-04-25T05:50:58.421Z,17.00
2019-04-25T05:53:30.377Z,15.90
2019-04-25T05:56:04.047Z,16.83
2019-04-25T05:58:36.354Z,15.00
2019-04-25T06:01:08.326Z,17.17
2019-04-25T06:03:40.283Z,12.40
2019-04-25T06:06:13.420Z,13.20
2019-04-25T06:08:47.100Z,16.43
2019-04-25T06:11:26.752Z,10.97
2019-04-25T06:14:00.616Z,9.80
2019-04-25T06:16:33.497Z,11.07
2019-04-25T06:19:13.998Z,10.50
2019-04-25T06:21:43.393Z,14.10
2019-04-25T06:24:27.347Z,9.80
2019-04-25T06:27:16.148Z,6.93
2019-04-25T06:29:58.163Z,7.37
2019-04-25T06:32:24.927Z,6.13
2019-04-25T06:34:57.577Z,7.97
2019-04-25T06:37:29.590Z,7.20
2019-04-25T06:40:03.460Z,5.40
2019-04-25T06:42:36.165Z,6.03
2019-04-25T06:45:17.209Z,8.03
2019-04-25T06:48:07.302Z,5.37
2019-04-25T06:50:39.269Z,9.67
2019-04-25T06:53:11.209Z,6.87
2019-04-25T06:55:44.903Z,6.30
2019-04-25T06:58:17.349Z,6.93
2019-04-25T07:00:58.148Z,7.83
2019-04-25T07:03:24.871Z,7.83
2019-04-25T07:05:56.765Z,6.67
2019-04-25T07:08:29.127Z,7.20
2019-04-25T07:11:01.279Z,6.73
2019-04-25T07:13:35.727Z,6.13
2019-04-25T07:16:06.884Z,6.43
2019-04-25T07:18:38.888Z,4.83
2019-04-25T07:21:10.858Z,13.80
2019-04-25T07:23:43.227Z,4.17
2019-04-25T07:26:18.602Z,5.10
2019-04-25T07:28:58.079Z,15.57
2019-04-25T07:31:33.144Z,7.20
2019-04-25T07:34:07.336Z,5.87
2019-04-25T07:36:39.296Z,6.27
2019-04-25T07:39:13.318Z,5.20
2019-04-25T07:41:45.512Z,5.10
2019-04-25T07:44:17.804Z,7.20
2019-04-25T07:46:49.808Z,5.70
2019-04-25T07:49:23.479Z,6.77
2019-04-25T07:51:55.740Z,4.83
2019-04-25T07:54:28.813Z,5.73
2019-04-25T07:57:00.947Z,8.27
2019-04-25T07:59:34.965Z,6.87
2019-04-25T08:02:07.173Z,9.03
2019-04-25T08:04:39.250Z,7.83
2019-04-25T08:07:11.629Z,6.10
2019-04-25T08:09:44.270Z,7.07
2019-04-25T08:12:16.594Z,7.07
2019-04-25T08:14:54.207Z,7.90
2019-04-25T08:17:46.895Z,7.97
2019-04-25T08:20:19.469Z,7.30
2019-04-25T08:22:57.121Z,8.83
2019-04-25T08:25:25.607Z,5.47
2019-04-25T08:27:57.816Z,6.03
2019-04-25T08:30:30.036Z,4.37
2019-04-25T08:33:01.976Z,6.73
2019-04-25T08:35:35.493Z,7.77
2019-04-25T08:38:07.947Z,5.87
2019-04-25T08:40:40.429Z,5.63
2019-04-25T08:43:12.499Z,6.10
2019-04-25T08:45:44.442Z,3.57
2019-04-25T08:48:16.385Z,4.10
2019-04-25T08:51:05.519Z,4.60
2019-04-25T08:53:45.147Z,2.63
2019-04-25T08:56:19.047Z,3.57
2019-04-25T08:59:03.643Z,1.90
2019-04-25T09:01:36.496Z,3.43
2019-04-25T09:04:17.521Z,4.33
2019-04-25T09:06:49.454Z,3.10
2019-04-25T09:09:21.474Z,3.23
2019-04-25T09:11:54.419Z,4.07
2019-04-25T09:14:26.521Z,3.30
2019-04-25T09:16:58.469Z,3.83
2019-04-25T09:19:30.763Z,2.50
2019-04-25T09:22:03.285Z,2.23
2019-04-25T09:24:36.836Z,2.30
2019-04-25T09:27:09.000Z,5.67
2019-04-25T09:29:40.955Z,2.03
2019-04-25T09:32:13.787Z,3.10
2019-04-25T09:34:45.966Z,4.30
2019-04-25T09:37:17.953Z,3.33
2019-04-25T09:39:57.217Z,3.80
2019-04-25T09:42:29.416Z,4.47
2019-04-25T09:45:06.259Z,3.17
2019-04-25T09:47:39.867Z,2.27
2019-04-25T09:50:33.865Z,2.40
2019-04-25T09:53:04.537Z,3.63
2019-04-25T09:55:54.351Z,3.77
2019-04-25T09:58:36.813Z,3.87
2019-04-25T10:01:14.087Z,6.03
2019-04-25T10:03:46.209Z,4.13
2019-04-25T10:06:19.673Z,5.23
2019-04-25T10:08:51.930Z,2.97
2019-04-25T10:11:28.647Z,4.83
2019-04-25T10:14:27.922Z,3.70
2019-04-25T10:17:03.797Z,5.97
2019-04-25T10:19:41.170Z,2.67
2019-04-25T10:22:16.464Z,4.30
2019-04-25T10:25:00.197Z,3.23
2019-04-25T10:27:30.437Z,5.47
2019-04-25T10:30:16.849Z,1.73
2019-04-25T10:32:57.736Z,2.10
2019-04-25T10:35:30.326Z,5.33
2019-04-25T10:38:13.890Z,4.23
2019-04-25T10:40:53.519Z,3.00
2019-04-25T10:43:25.567Z,1.07
2019-04-25T10:45:57.667Z,1.30
2019-04-25T10:48:29.935Z,4.07
2019-04-25T10:51:04.016Z,3.47
2019-04-25T10:53:35.579Z,2.37
2019-04-25T10:56:08.730Z,3.93
2019-04-25T10:58:41.537Z,2.60
2019-04-25T11:01:15.290Z,2.50
2019-04-25T11:03:49.018Z,2.73
2019-04-25T11:06:24.680Z,1.87
2019-04-25T11:08:56.688Z,3.63
2019-04-25T11:11:29.657Z,2.37
2019-04-25T11:14:03.355Z,5.23
2019-04-25T11:16:35.740Z,2.77
2019-04-25T11:19:07.757Z,3.57
2019-04-25T11:21:39.693Z,2.03
2019-04-25T11:24:11.978Z,4.77
2019-04-25T11:26:47.153Z,4.07
2019-04-25T11:29:19.665Z,1.90
2019-04-25T11:31:51.772Z,2.60
2019-04-25T11:34:24.550Z,7.13
2019-04-25T11:36:57.638Z,3.57
2019-04-25T11:39:45.055Z,1.63
2019-04-25T11:42:17.295Z,1.30
2019-04-25T11:44:49.753Z,1.77
2019-04-25T11:47:21.993Z,2.00
2019-04-25T11:49:54.609Z,0.90
2019-04-25T11:52:30.248Z,1.30
2019-04-25T11:55:02.090Z,3.17
2019-04-25T11:57:34.041Z,4.30
2019-04-25T12:00:21.623Z,4.80
2019-04-25T12:02:44.044Z,3.17
2019-04-25T12:05:17.479Z,1.53
2019-04-25T12:07:50.040Z,2.80
2019-04-25T12:10:24.222Z,5.87
2019-04-25T12:12:56.335Z,1.40
2019-04-25T12:15:28.539Z,5.13
2019-04-25T12:18:00.735Z,1.43
2019-04-25T12:20:34.058Z,3.20
2019-04-25T12:23:10.414Z,3.03
2019-04-25T12:25:39.994Z,2.13
2019-04-25T12:28:14.037Z,2.97
2019-04-25T12:30:47.699Z,2.33
2019-04-25T12:33:21.584Z,4.60
2019-04-25T12:35:54.244Z,1.73
2019-04-25T12:38:27.569Z,2.27
2019-04-25T12:40:59.527Z,4.37
2019-04-25T12:43:33.907Z,3.80
2019-04-25T12:46:08.207Z,2.63
2019-04-25T12:48:43.183Z,1.30
2019-04-25T12:51:15.283Z,0.90
2019-04-25T12:53:47.986Z,0.97
2019-04-25T12:56:20.426Z,2.57
2019-04-25T12:58:53.837Z,2.67
2019-04-25T13:01:26.342Z,1.83
2019-04-25T13:03:58.858Z,3.47
2019-04-25T13:06:33.821Z,1.20
2019-04-25T13:09:07.445Z,2.33
2019-04-25T13:11:39.442Z,2.50
2019-04-25T13:14:11.667Z,3.07
2019-04-25T13:16:44.303Z,2.30
2019-04-25T13:19:23.403Z,6.97
2019-04-25T13:21:50.713Z,1.73
2019-04-25T13:24:22.640Z,2.60
2019-04-25T13:27:03.498Z,2.17
2019-04-25T13:29:37.054Z,2.57
2019-04-25T13:32:23.456Z,5.40
2019-04-25T13:35:04.843Z,3.63
2019-04-25T13:37:39.950Z,4.27
2019-04-25T13:40:26.179Z,3.20
2019-04-25T13:43:02.870Z,5.10
2019-04-25T13:45:41.386Z,2.20
2019-04-25T13:48:20.753Z,6.23
2019-04-25T13:50:55.974Z,1.37
2019-04-25T13:53:31.639Z,4.37
2019-04-25T13:56:07.299Z,2.90
2019-04-25T13:58:56.869Z,1.73
2019-04-25T14:01:35.179Z,1.80
2019-04-25T14:04:10.445Z,3.00
2019-04-25T14:06:46.154Z,3.90
2019-04-25T14:09:48.655Z,3.37
2019-04-25T14:12:11.815Z,1.23
2019-04-25T14:14:54.039Z,6.27
2019-04-25T14:17:31.103Z,3.67
2019-04-25T14:20:15.860Z,5.83
2019-04-25T14:22:54.360Z,6.33
2019-04-25T14:25:35.237Z,1.87
2019-04-25T14:28:15.522Z,3.80
2019-04-25T14:30:52.406Z,4.57
2019-04-25T14:33:25.393Z,3.73
2019-04-25T14:35:58.075Z,7.80
2019-04-25T14:38:30.045Z,3.97
2019-04-25T14:41:02.323Z,1.93
2019-04-25T14:43:34.532Z,4.40
2019-04-25T14:46:06.507Z,2.77
2019-04-25T14:48:39.253Z,6.10
2019-04-25T14:51:11.195Z,3.53
2019-04-25T14:53:44.960Z,3.63
2019-04-25T14:56:25.882Z,2.40
2019-04-25T14:58:58.227Z,4.60
2019-04-25T15:01:30.280Z,7.13
2019-04-25T15:04:02.219Z,2.17
2019-04-25T15:06:34.720Z,1.97
2019-04-25T15:09:08.116Z,5.90
2019-04-25T15:11:40.075Z,6.40
2019-04-25T15:14:12.088Z,4.53
2019-04-25T15:16:44.031Z,4.00
2019-04-25T15:19:16.119Z,7.17
2019-04-25T15:21:48.156Z,4.37
2019-04-25T15:24:20.135Z,2.07
2019-04-25T15:26:52.886Z,2.80
2019-04-25T15:29:25.519Z,4.10
2019-04-25T15:31:58.545Z,4.50
2019-04-25T15:34:32.118Z,3.40
2019-04-25T15:37:11.410Z,5.67
2019-04-25T15:39:45.246Z,3.07
2019-04-25T15:42:18.860Z,7.90
2019-04-25T15:45:08.722Z,3.60
2019-04-25T15:47:40.741Z,6.07
2019-04-25T15:50:13.243Z,3.33
2019-04-25T15:52:45.460Z,2.83
2019-04-25T15:55:17.581Z,1.80
2019-04-25T15:57:49.904Z,2.30
2019-04-25T16:00:32.839Z,7.27
2019-04-25T16:03:05.367Z,4.40
2019-04-25T16:05:38.326Z,2.53
2019-04-25T16:08:10.384Z,5.33
2019-04-25T16:10:42.569Z,2.90
2019-04-25T16:13:15.428Z,3.30
2019-04-25T16:15:47.692Z,3.77
2019-04-25T16:18:19.973Z,3.73
2019-04-25T16:20:52.053Z,3.30
2019-04-25T16:23:24.278Z,7.40
2019-04-25T16:25:56.265Z,10.33
2019-04-25T16:28:28.826Z,4.83
2019-04-25T16:31:00.890Z,5.67
2019-04-25T16:33:33.247Z,1.93
2019-04-25T16:36:05.651Z,4.80
2019-04-25T16:38:37.605Z,8.23
2019-04-25T16:41:09.563Z,7.87
2019-04-25T16:43:43.487Z,7.13
2019-04-25T16:46:16.210Z,8.90
2019-04-25T16:48:48.146Z,4.87
2019-04-25T16:51:20.113Z,7.53
2019-04-25T16:53:52.043Z,5.83
2019-04-25T16:56:24.343Z,5.60
2019-04-25T16:58:56.280Z,3.77
2019-04-25T17:01:30.213Z,7.30
2019-04-25T17:04:02.814Z,5.57
2019-04-25T17:06:35.935Z,4.00
2019-04-25T17:09:08.573Z,3.03
2019-04-25T17:11:41.762Z,7.67
2019-04-25T17:14:24.481Z,11.10
2019-04-25T17:16:58.196Z,8.27
2019-04-25T17:19:43.761Z,6.90
2019-04-25T17:22:15.867Z,3.07
2019-04-25T17:24:48.188Z,5.27
2019-04-25T17:27:21.071Z,4.27
2019-04-25T17:29:53.024Z,5.90
2019-04-25T17:32:48.485Z,5.40
2019-04-25T17:35:12.757Z,10.23
2019-04-25T17:37:52.499Z,5.77
2019-04-25T17:40:26.070Z,5.03
2019-04-25T17:43:10.250Z,4.90
2019-04-25T17:45:33.482Z,4.17
2019-04-25T17:48:05.866Z,6.67
2019-04-25T17:50:38.317Z,4.17
2019-04-25T17:53:10.695Z,5.87
2019-04-25T17:55:43.656Z,9.70
2019-04-25T17:58:16.089Z,7.13
2019-04-25T18:00:48.688Z,8.83
2019-04-25T18:03:20.929Z,6.83
2019-04-25T18:05:52.878Z,9.10
2019-04-25T18:08:25.215Z,6.90
2019-04-25T18:10:57.155Z,9.97
2019-04-25T18:13:29.100Z,6.97
2019-04-25T18:16:21.004Z,6.83
2019-04-25T18:19:00.866Z,9.23
2019-04-25T18:21:34.254Z,7.43
2019-04-25T18:24:09.011Z,7.33
2019-04-25T18:26:43.463Z,12.30
2019-04-25T18:29:17.519Z,8.70
2019-04-25T18:31:49.764Z,10.77
2019-04-25T18:34:26.032Z,11.40
2019-04-25T18:37:14.885Z,14.60
2019-04-25T18:39:51.205Z,17.40
2019-04-25T18:42:24.799Z,20.93
2019-04-25T18:44:56.754Z,24.83
2019-04-25T18:47:28.726Z,18.80
2019-04-25T18:50:00.994Z,19.87
2019-04-25T18:52:47.133Z,19.13
2019-04-25T18:55:33.291Z,20.10
2019-04-25T18:58:19.393Z,24.47
2019-04-25T19:01:08.244Z,21.00
2019-04-25T19:03:53.807Z,23.23
2019-04-25T19:06:27.783Z,21.60
2019-04-25T19:09:00.119Z,19.82
2019-04-25T19:11:32.729Z,29.97
2019-04-25T19:14:04.765Z,19.63
2019-04-25T19:16:36.731Z,20.83
2019-04-25T19:19:08.955Z,19.50
2019-04-25T19:21:41.622Z,19.77
2019-04-25T19:24:13.713Z,21.37
2019-04-25T19:26:46.147Z,21.53
2019-04-25T19:29:18.131Z,21.70
2019-04-25T19:31:52.039Z,23.30
2019-04-25T19:34:23.753Z,17.03
2019-04-25T19:36:55.728Z,21.27
2019-04-25T19:39:29.398Z,17.70
2019-04-25T19:42:14.790Z,29.73
2019-04-25T19:44:47.173Z,20.33
2019-04-25T19:47:20.787Z,24.03
2019-04-25T19:49:53.146Z,25.83
2019-04-25T19:52:25.110Z,20.23
2019-04-25T19:54:57.059Z,23.60
2019-04-25T19:57:29.019Z,20.23
2019-04-25T20:00:00.961Z,23.60
2019-04-25T20:02:34.635Z,22.90
2019-04-25T20:05:28.074Z,19.97
2019-04-25T20:08:01.723Z,24.43
2019-04-25T20:10:35.308Z,19.50
2019-04-25T20:13:07.272Z,22.60
2019-04-25T20:15:39.510Z,20.13
2019-04-25T20:18:11.479Z,23.13
2019-04-25T20:20:44.596Z,18.70
2019-04-25T20:23:19.751Z,23.17
2019-04-25T20:25:52.747Z,23.63
2019-04-25T20:28:25.167Z,25.63
2019-04-25T20:30:57.442Z,22.07
2019-04-25T20:33:29.401Z,25.77
2019-04-25T20:36:01.669Z,24.00
2019-04-25T20:38:33.615Z,28.30
2019-04-25T20:41:05.804Z,25.90
2019-04-25T20:43:37.953Z,23.87
2019-04-25T20:46:10.358Z,26.33
2019-04-25T20:48:42.614Z,27.97
2019-04-25T20:51:14.571Z,20.83
2019-04-25T20:53:47.498Z,21.27
2019-04-25T20:56:19.858Z,26.17
2019-04-25T20:58:52.113Z,27.33
2019-04-25T21:01:24.090Z,24.63
2019-04-25T21:03:56.218Z,24.83
2019-04-25T21:06:32.335Z,24.07
2019-04-25T21:09:06.325Z,26.90
2019-04-25T21:11:38.273Z,24.73
2019-04-25T21:14:12.197Z,28.87
2019-04-25T21:16:45.801Z,28.87
2019-04-25T21:19:35.510Z,24.80
2019-04-25T21:22:07.464Z,31.27
2019-04-25T21:24:39.456Z,31.40
2019-04-25T21:27:11.782Z,25.17
2019-04-25T21:29:44.154Z,29.87
2019-04-25T21:32:17.743Z,28.03
2019-04-25T21:34:51.706Z,27.93
2019-04-25T21:37:26.063Z,24.83
2019-04-25T21:40:02.952Z,29.53
2019-04-25T21:42:48.521Z,26.23
2019-04-25T21:45:21.227Z,23.70
2019-04-25T21:47:54.731Z,26.10
2019-04-25T21:50:27.204Z,24.60
2019-04-25T21:52:59.643Z,23.87
2019-04-25T21:55:32.460Z,26.90
2019-04-25T21:58:05.277Z,24.17
2019-04-25T22:00:58.169Z,30.00
2019-04-25T22:03:30.655Z,31.73
2019-04-25T22:06:03.553Z,31.07
2019-04-25T22:08:36.036Z,22.23
2019-04-25T22:11:07.997Z,29.23
2019-04-25T22:13:40.339Z,21.03
2019-04-25T22:16:12.689Z,20.93
2019-04-25T22:18:44.755Z,23.90
2019-04-25T22:21:17.000Z,25.13
2019-04-25T22:23:49.313Z,21.80
2019-04-25T22:26:21.287Z,22.10
2019-04-25T22:28:53.531Z,25.43
2019-04-25T22:31:33.192Z,25.67
2019-04-25T22:34:15.940Z,19.77
2019-04-25T22:36:48.197Z,24.00
2019-04-25T22:39:20.797Z,23.00
2019-04-25T22:41:53.026Z,27.00
2019-04-25T22:44:25.476Z,27.17
2019-04-25T22:46:57.678Z,22.90
2019-04-25T22:49:29.699Z,19.13
2019-04-25T22:52:02.222Z,26.53
2019-04-25T22:54:35.447Z,22.53
2019-04-25T22:57:08.440Z,20.20
2019-04-25T22:59:40.750Z,22.33
2019-04-25T23:02:16.944Z,21.53
2019-04-25T23:04:50.898Z,21.37
2019-04-25T23:07:22.848Z,22.47
2019-04-25T23:09:55.259Z,25.10
2019-04-25T23:12:27.484Z,26.37
2019-04-25T23:14:59.451Z,20.83
2019-04-25T23:17:31.410Z,26.67
2019-04-25T23:20:05.632Z,24.77
2019-04-25T23:22:37.710Z,20.83
2019-04-25T23:25:12.328Z,24.53
2019-04-25T23:27:45.931Z,21.57
2019-04-25T23:30:19.987Z,24.50
2019-04-25T23:32:51.945Z,24.07
2019-04-25T23:35:29.963Z,23.60
2019-04-25T23:37:57.558Z,23.73
2019-04-25T23:40:29.502Z,32.23
2019-04-25T23:43:01.550Z,30.40
2019-04-25T23:45:33.570Z,26.70
2019-04-25T23:48:06.090Z,29.10
2019-04-25T23:50:39.333Z,28.00
2019-04-25T23:53:11.305Z,28.37
2019-04-25T23:55:43.631Z,32.70
2019-04-25T23:58:15.641Z,26.83
